Bismarck Municipal Airport Bismarck US
ICAO: KBIS
IATA: BIS
Category: Medium
Scheduled Services: Yes

Elevation: 1661 ft
TransAlt. 18000 ft.

Airport Communications:
APP/DEP:126.3
ATIS:119.35
CTAF:118.3
GND:121.9
ARNG OPS:49.8
GRAND FORKS RDO:122.2
TWR:118.3
UNICOM:122.95

KBIS Zoom In..

If you have problems with the map follow the link
https://www.worldairports.se/pages/airport.php?
ICAO=KBIS

Runways:

(A) RW 03 length 6600 ft width 100 ft
---- / hdg 32

(B) RW 13 length 8794 ft width 150 ft
ILS 111.50 / hdg 131

(C) RW 21 length 6600 ft width 100 ft
---- / hdg 212

(D) RW 31 length 8794 ft width 150 ft
ILS 110.30 / hdg 311

Location; KBIS
Day. 20 / Time. 20.52 Zulu
* Altimeter: 29.65
* Temperature: -09° c. -15.8°f.
* Wind from: 340° Speed 08 kn.
Dewpoint: -12° c.
Visibility: 1 m.
Clouds: Few 1400 ft.
Clouds: Broken 2100 ft.
Clouds: Overcast 2700 ft.
Conditions: Light Snow.

KBIS 202052Z 34008KT 1 1/4SM -SN FEW014 BKN021 OVC027 M09/M12 A2965 RMK AO2 SLP074 P0001 60002 T10891122 56014


Wind From 340°
Speed 08 kn.

 
 
jpsmedia.com for Web Design worldairports.se 2019   terms of use